sensor_id;sensor_type;location;lat;lon;timestamp;P1;durP1;ratioP1;P2;durP2;ratioP2
3733;SDS011;1882;52.256;8.874;2024-01-16T00:00:57;4.53;;;2.83;;
3733;SDS011;1882;52.256;8.874;2024-01-16T00:03:24;2.63;;;2.40;;
3733;SDS011;1882;52.256;8.874;2024-01-16T00:05:51;5.53;;;2.87;;
3733;SDS011;1882;52.256;8.874;2024-01-16T00:08:18;3.67;;;2.60;;
3733;SDS011;1882;52.256;8.874;2024-01-16T00:10:45;4.73;;;2.80;;
3733;SDS011;1882;52.256;8.874;2024-01-16T00:13:12;3.63;;;2.50;;
3733;SDS011;1882;52.256;8.874;2024-01-16T00:15:39;4.03;;;2.70;;
3733;SDS011;1882;52.256;8.874;2024-01-16T00:18:08;7.20;;;2.83;;
3733;SDS011;1882;52.256;8.874;2024-01-16T00:20:35;6.80;;;2.50;;
3733;SDS011;1882;52.256;8.874;2024-01-16T00:23:02;7.67;;;2.70;;
3733;SDS011;1882;52.256;8.874;2024-01-16T00:25:29;4.70;;;2.23;;
3733;SDS011;1882;52.256;8.874;2024-01-16T00:27:56;3.90;;;1.90;;
3733;SDS011;1882;52.256;8.874;2024-01-16T00:30:23;2.93;;;2.33;;
3733;SDS011;1882;52.256;8.874;2024-01-16T00:32:50;7.37;;;2.90;;
3733;SDS011;1882;52.256;8.874;2024-01-16T00:35:17;5.83;;;2.87;;
3733;SDS011;1882;52.256;8.874;2024-01-16T00:37:46;5.73;;;2.90;;
3733;SDS011;1882;52.256;8.874;2024-01-16T00:40:13;6.93;;;2.57;;
3733;SDS011;1882;52.256;8.874;2024-01-16T00:42:40;8.80;;;2.80;;
3733;SDS011;1882;52.256;8.874;2024-01-16T00:45:07;6.80;;;2.63;;
3733;SDS011;1882;52.256;8.874;2024-01-16T00:47:34;7.87;;;2.90;;
3733;SDS011;1882;52.256;8.874;2024-01-16T00:50:01;6.33;;;2.53;;
3733;SDS011;1882;52.256;8.874;2024-01-16T00:52:28;5.37;;;2.50;;
3733;SDS011;1882;52.256;8.874;2024-01-16T00:54:55;5.37;;;2.60;;
3733;SDS011;1882;52.256;8.874;2024-01-16T00:57:22;7.83;;;2.60;;
3733;SDS011;1882;52.256;8.874;2024-01-16T00:59:49;6.73;;;2.40;;
3733;SDS011;1882;52.256;8.874;2024-01-16T01:02:16;4.53;;;2.30;;
3733;SDS011;1882;52.256;8.874;2024-01-16T01:04:43;8.23;;;2.30;;
3733;SDS011;1882;52.256;8.874;2024-01-16T01:07:14;9.30;;;2.60;;
3733;SDS011;1882;52.256;8.874;2024-01-16T01:09:41;6.30;;;2.67;;
3733;SDS011;1882;52.256;8.874;2024-01-16T01:12:08;4.67;;;2.10;;
3733;SDS011;1882;52.256;8.874;2024-01-16T01:14:36;10.70;;;1.97;;
3733;SDS011;1882;52.256;8.874;2024-01-16T01:17:03;5.30;;;2.03;;
3733;SDS011;1882;52.256;8.874;2024-01-16T01:19:30;8.70;;;2.30;;
3733;SDS011;1882;52.256;8.874;2024-01-16T01:21:57;4.63;;;2.03;;
3733;SDS011;1882;52.256;8.874;2024-01-16T01:24:24;8.80;;;2.27;;
3733;SDS011;1882;52.256;8.874;2024-01-16T01:26:51;6.33;;;2.00;;
3733;SDS011;1882;52.256;8.874;2024-01-16T01:29:18;4.47;;;2.13;;
3733;SDS011;1882;52.256;8.874;2024-01-16T01:31:46;4.57;;;2.20;;
3733;SDS011;1882;52.256;8.874;2024-01-16T01:34:15;5.37;;;2.20;;
3733;SDS011;1882;52.256;8.874;2024-01-16T01:36:43;7.70;;;1.87;;
3733;SDS011;1882;52.256;8.874;2024-01-16T01:39:10;4.57;;;2.07;;
3733;SDS011;1882;52.256;8.874;2024-01-16T01:41:38;3.83;;;1.90;;
3733;SDS011;1882;52.256;8.874;2024-01-16T01:44:06;4.80;;;1.80;;
3733;SDS011;1882;52.256;8.874;2024-01-16T01:46:33;5.70;;;1.70;;
3733;SDS011;1882;52.256;8.874;2024-01-16T01:49:02;7.10;;;2.07;;
3733;SDS011;1882;52.256;8.874;2024-01-16T01:51:30;5.40;;;2.07;;
3733;SDS011;1882;52.256;8.874;2024-01-16T01:53:57;6.70;;;1.80;;
3733;SDS011;1882;52.256;8.874;2024-01-16T01:56:25;7.97;;;2.17;;
3733;SDS011;1882;52.256;8.874;2024-01-16T01:58:54;9.10;;;2.00;;
3733;SDS011;1882;52.256;8.874;2024-01-16T02:01:25;5.33;;;1.80;;
3733;SDS011;1882;52.256;8.874;2024-01-16T02:03:55;11.77;;;2.63;;
3733;SDS011;1882;52.256;8.874;2024-01-16T02:06:24;5.80;;;2.27;;
3733;SDS011;1882;52.256;8.874;2024-01-16T02:08:51;9.73;;;2.20;;
3733;SDS011;1882;52.256;8.874;2024-01-16T02:11:18;11.27;;;2.50;;
3733;SDS011;1882;52.256;8.874;2024-01-16T02:13:45;8.20;;;2.57;;
3733;SDS011;1882;52.256;8.874;2024-01-16T02:16:22;6.30;;;2.63;;
3733;SDS011;1882;52.256;8.874;2024-01-16T02:18:50;9.60;;;2.47;;
3733;SDS011;1882;52.256;8.874;2024-01-16T02:21:22;6.10;;;2.13;;
3733;SDS011;1882;52.256;8.874;2024-01-16T02:23:51;6.20;;;2.67;;
3733;SDS011;1882;52.256;8.874;2024-01-16T02:26:18;9.10;;;2.50;;
3733;SDS011;1882;52.256;8.874;2024-01-16T02:28:45;7.40;;;3.00;;
3733;SDS011;1882;52.256;8.874;2024-01-16T02:31:12;6.37;;;2.10;;
3733;SDS011;1882;52.256;8.874;2024-01-16T02:33:39;9.43;;;3.00;;
3733;SDS011;1882;52.256;8.874;2024-01-16T02:36:07;9.40;;;2.43;;
3733;SDS011;1882;52.256;8.874;2024-01-16T02:38:33;6.80;;;2.40;;
3733;SDS011;1882;52.256;8.874;2024-01-16T02:41:00;5.47;;;2.40;;
3733;SDS011;1882;52.256;8.874;2024-01-16T02:43:27;5.03;;;2.37;;
3733;SDS011;1882;52.256;8.874;2024-01-16T02:45:54;7.80;;;2.63;;
3733;SDS011;1882;52.256;8.874;2024-01-16T02:48:21;6.07;;;2.50;;
3733;SDS011;1882;52.256;8.874;2024-01-16T02:50:48;11.70;;;2.67;;
3733;SDS011;1882;52.256;8.874;2024-01-16T02:53:15;11.40;;;3.00;;
3733;SDS011;1882;52.256;8.874;2024-01-16T02:55:42;5.60;;;2.50;;
3733;SDS011;1882;52.256;8.874;2024-01-16T02:58:09;10.63;;;2.93;;
3733;SDS011;1882;52.256;8.874;2024-01-16T03:00:36;6.80;;;2.30;;
3733;SDS011;1882;52.256;8.874;2024-01-16T03:03:03;6.57;;;2.87;;
3733;SDS011;1882;52.256;8.874;2024-01-16T03:05:31;5.90;;;2.70;;
3733;SDS011;1882;52.256;8.874;2024-01-16T03:07:58;7.77;;;2.47;;
3733;SDS011;1882;52.256;8.874;2024-01-16T03:10:25;10.73;;;2.40;;
3733;SDS011;1882;52.256;8.874;2024-01-16T03:12:52;10.10;;;2.73;;
3733;SDS011;1882;52.256;8.874;2024-01-16T03:15:19;6.67;;;2.37;;
3733;SDS011;1882;52.256;8.874;2024-01-16T03:17:47;13.63;;;3.13;;
3733;SDS011;1882;52.256;8.874;2024-01-16T03:20:15;9.33;;;2.97;;
3733;SDS011;1882;52.256;8.874;2024-01-16T03:22:42;5.33;;;2.57;;
3733;SDS011;1882;52.256;8.874;2024-01-16T03:25:10;6.63;;;3.00;;
3733;SDS011;1882;52.256;8.874;2024-01-16T03:27:38;4.70;;;2.67;;
3733;SDS011;1882;52.256;8.874;2024-01-16T03:30:05;8.10;;;2.80;;
3733;SDS011;1882;52.256;8.874;2024-01-16T03:32:35;11.23;;;3.37;;
3733;SDS011;1882;52.256;8.874;2024-01-16T03:35:03;7.03;;;2.80;;
3733;SDS011;1882;52.256;8.874;2024-01-16T03:37:31;4.60;;;2.30;;
3733;SDS011;1882;52.256;8.874;2024-01-16T03:39:58;9.50;;;3.40;;
3733;SDS011;1882;52.256;8.874;2024-01-16T03:42:26;9.93;;;3.07;;
3733;SDS011;1882;52.256;8.874;2024-01-16T03:44:53;8.80;;;3.07;;
3733;SDS011;1882;52.256;8.874;2024-01-16T03:47:20;14.20;;;3.60;;
3733;SDS011;1882;52.256;8.874;2024-01-16T03:49:47;18.43;;;4.40;;
3733;SDS011;1882;52.256;8.874;2024-01-16T03:52:14;9.90;;;3.67;;
3733;SDS011;1882;52.256;8.874;2024-01-16T03:54:41;9.17;;;3.50;;
3733;SDS011;1882;52.256;8.874;2024-01-16T03:57:07;15.50;;;4.37;;
3733;SDS011;1882;52.256;8.874;2024-01-16T03:59:36;13.37;;;4.63;;
3733;SDS011;1882;52.256;8.874;2024-01-16T04:02:04;15.10;;;4.37;;
3733;SDS011;1882;52.256;8.874;2024-01-16T04:04:31;10.77;;;4.50;;
3733;SDS011;1882;52.256;8.874;2024-01-16T04:06:58;13.10;;;4.77;;
3733;SDS011;1882;52.256;8.874;2024-01-16T04:09:25;12.03;;;4.83;;
3733;SDS011;1882;52.256;8.874;2024-01-16T04:11:52;9.97;;;4.47;;
3733;SDS011;1882;52.256;8.874;2024-01-16T04:14:19;15.33;;;4.57;;
3733;SDS011;1882;52.256;8.874;2024-01-16T04:16:46;8.80;;;4.03;;
3733;SDS011;1882;52.256;8.874;2024-01-16T04:19:13;15.60;;;4.87;;
3733;SDS011;1882;52.256;8.874;2024-01-16T04:21:41;11.63;;;5.13;;
3733;SDS011;1882;52.256;8.874;2024-01-16T04:24:07;9.57;;;4.83;;
3733;SDS011;1882;52.256;8.874;2024-01-16T04:26:35;11.57;;;5.20;;
3733;SDS011;1882;52.256;8.874;2024-01-16T04:29:04;15.40;;;4.53;;
3733;SDS011;1882;52.256;8.874;2024-01-16T04:31:32;8.20;;;4.17;;
3733;SDS011;1882;52.256;8.874;2024-01-16T04:34:04;9.27;;;4.03;;
3733;SDS011;1882;52.256;8.874;2024-01-16T04:36:31;10.33;;;4.10;;
3733;SDS011;1882;52.256;8.874;2024-01-16T04:38:58;9.60;;;4.80;;
3733;SDS011;1882;52.256;8.874;2024-01-16T04:41:26;8.40;;;4.33;;
3733;SDS011;1882;52.256;8.874;2024-01-16T04:43:53;12.90;;;4.43;;
3733;SDS011;1882;52.256;8.874;2024-01-16T04:46:20;12.27;;;4.13;;
3733;SDS011;1882;52.256;8.874;2024-01-16T04:48:47;11.70;;;4.67;;
3733;SDS011;1882;52.256;8.874;2024-01-16T04:51:14;10.73;;;5.10;;
3733;SDS011;1882;52.256;8.874;2024-01-16T04:53:41;11.93;;;4.93;;
3733;SDS011;1882;52.256;8.874;2024-01-16T04:56:09;11.13;;;4.13;;
3733;SDS011;1882;52.256;8.874;2024-01-16T04:58:37;20.90;;;4.93;;
3733;SDS011;1882;52.256;8.874;2024-01-16T05:01:04;7.67;;;4.00;;
3733;SDS011;1882;52.256;8.874;2024-01-16T05:03:31;7.30;;;3.73;;
3733;SDS011;1882;52.256;8.874;2024-01-16T05:05:58;9.30;;;3.60;;
3733;SDS011;1882;52.256;8.874;2024-01-16T05:08:25;10.77;;;4.30;;
3733;SDS011;1882;52.256;8.874;2024-01-16T05:10:51;11.70;;;4.17;;
3733;SDS011;1882;52.256;8.874;2024-01-16T05:13:18;10.33;;;4.90;;
3733;SDS011;1882;52.256;8.874;2024-01-16T05:15:45;15.40;;;4.63;;
3733;SDS011;1882;52.256;8.874;2024-01-16T05:18:12;10.87;;;4.90;;
3733;SDS011;1882;52.256;8.874;2024-01-16T05:20:39;8.70;;;5.00;;
3733;SDS011;1882;52.256;8.874;2024-01-16T05:23:06;11.00;;;4.97;;
3733;SDS011;1882;52.256;8.874;2024-01-16T05:25:33;13.97;;;5.50;;
3733;SDS011;1882;52.256;8.874;2024-01-16T05:28:00;11.00;;;5.23;;
3733;SDS011;1882;52.256;8.874;2024-01-16T05:30:27;13.30;;;5.03;;
3733;SDS011;1882;52.256;8.874;2024-01-16T05:32:54;8.00;;;5.00;;
3733;SDS011;1882;52.256;8.874;2024-01-16T05:35:21;14.23;;;5.37;;
3733;SDS011;1882;52.256;8.874;2024-01-16T05:37:51;15.90;;;6.07;;
3733;SDS011;1882;52.256;8.874;2024-01-16T05:40:18;15.57;;;6.00;;
3733;SDS011;1882;52.256;8.874;2024-01-16T05:42:45;12.07;;;5.77;;
3733;SDS011;1882;52.256;8.874;2024-01-16T05:45:11;10.60;;;5.40;;
3733;SDS011;1882;52.256;8.874;2024-01-16T05:47:40;10.17;;;5.30;;
3733;SDS011;1882;52.256;8.874;2024-01-16T05:50:07;13.03;;;5.77;;
3733;SDS011;1882;52.256;8.874;2024-01-16T05:52:35;10.17;;;5.20;;
3733;SDS011;1882;52.256;8.874;2024-01-16T05:55:03;11.13;;;5.83;;
3733;SDS011;1882;52.256;8.874;2024-01-16T05:57:31;15.07;;;5.63;;
3733;SDS011;1882;52.256;8.874;2024-01-16T05:59:59;12.90;;;5.80;;
3733;SDS011;1882;52.256;8.874;2024-01-16T06:02:30;12.63;;;5.53;;
3733;SDS011;1882;52.256;8.874;2024-01-16T06:04:57;12.63;;;6.20;;
3733;SDS011;1882;52.256;8.874;2024-01-16T06:07:24;12.10;;;5.47;;
3733;SDS011;1882;52.256;8.874;2024-01-16T06:09:52;7.87;;;5.73;;
3733;SDS011;1882;52.256;8.874;2024-01-16T06:12:19;16.60;;;6.00;;
3733;SDS011;1882;52.256;8.874;2024-01-16T06:14:46;14.20;;;6.33;;
3733;SDS011;1882;52.256;8.874;2024-01-16T06:17:13;9.30;;;6.03;;
3733;SDS011;1882;52.256;8.874;2024-01-16T06:19:40;12.40;;;6.20;;
3733;SDS011;1882;52.256;8.874;2024-01-16T06:22:07;12.97;;;6.40;;
3733;SDS011;1882;52.256;8.874;2024-01-16T06:24:35;12.20;;;5.77;;
3733;SDS011;1882;52.256;8.874;2024-01-16T06:27:06;18.77;;;6.60;;
3733;SDS011;1882;52.256;8.874;2024-01-16T06:29:33;14.73;;;6.23;;
3733;SDS011;1882;52.256;8.874;2024-01-16T06:32:01;12.20;;;6.00;;
3733;SDS011;1882;52.256;8.874;2024-01-16T06:34:28;11.73;;;6.63;;
3733;SDS011;1882;52.256;8.874;2024-01-16T06:36:55;13.10;;;6.60;;
3733;SDS011;1882;52.256;8.874;2024-01-16T06:39:22;11.73;;;6.17;;
3733;SDS011;1882;52.256;8.874;2024-01-16T06:41:49;14.50;;;7.20;;
3733;SDS011;1882;52.256;8.874;2024-01-16T06:44:16;15.57;;;6.83;;
3733;SDS011;1882;52.256;8.874;2024-01-16T06:46:44;18.07;;;6.67;;
3733;SDS011;1882;52.256;8.874;2024-01-16T06:49:11;12.83;;;6.80;;
3733;SDS011;1882;52.256;8.874;2024-01-16T06:51:38;16.17;;;7.47;;
3733;SDS011;1882;52.256;8.874;2024-01-16T06:54:05;16.13;;;6.90;;
3733;SDS011;1882;52.256;8.874;2024-01-16T06:56:32;15.23;;;7.00;;
3733;SDS011;1882;52.256;8.874;2024-01-16T06:58:59;16.53;;;7.10;;
3733;SDS011;1882;52.256;8.874;2024-01-16T07:01:26;15.33;;;6.73;;
3733;SDS011;1882;52.256;8.874;2024-01-16T07:03:53;12.33;;;7.03;;
3733;SDS011;1882;52.256;8.874;2024-01-16T07:06:20;18.37;;;7.70;;
3733;SDS011;1882;52.256;8.874;2024-01-16T07:08:47;17.53;;;7.40;;
3733;SDS011;1882;52.256;8.874;2024-01-16T07:11:14;14.23;;;7.23;;
3733;SDS011;1882;52.256;8.874;2024-01-16T07:13:41;19.80;;;6.80;;
3733;SDS011;1882;52.256;8.874;2024-01-16T07:16:10;19.97;;;7.43;;
3733;SDS011;1882;52.256;8.874;2024-01-16T07:18:37;16.93;;;6.67;;
3733;SDS011;1882;52.256;8.874;2024-01-16T07:21:18;12.60;;;7.30;;
3733;SDS011;1882;52.256;8.874;2024-01-16T07:23:47;14.10;;;7.37;;
3733;SDS011;1882;52.256;8.874;2024-01-16T07:26:14;14.60;;;7.70;;
3733;SDS011;1882;52.256;8.874;2024-01-16T07:28:43;17.77;;;8.13;;
3733;SDS011;1882;52.256;8.874;2024-01-16T07:31:10;16.20;;;7.40;;
3733;SDS011;1882;52.256;8.874;2024-01-16T07:33:38;15.57;;;8.07;;
3733;SDS011;1882;52.256;8.874;2024-01-16T07:36:05;29.17;;;8.03;;
3733;SDS011;1882;52.256;8.874;2024-01-16T07:38:35;12.07;;;7.37;;
3733;SDS011;1882;52.256;8.874;2024-01-16T07:41:03;18.60;;;8.60;;
3733;SDS011;1882;52.256;8.874;2024-01-16T07:43:30;22.90;;;8.67;;
3733;SDS011;1882;52.256;8.874;2024-01-16T07:45:57;20.67;;;9.43;;
3733;SDS011;1882;52.256;8.874;2024-01-16T07:48:25;19.97;;;10.50;;
3733;SDS011;1882;52.256;8.874;2024-01-16T07:50:52;14.03;;;9.93;;
3733;SDS011;1882;52.256;8.874;2024-01-16T07:53:19;18.13;;;9.57;;
3733;SDS011;1882;52.256;8.874;2024-01-16T07:55:46;15.17;;;8.17;;
3733;SDS011;1882;52.256;8.874;2024-01-16T07:58:13;16.53;;;7.60;;
3733;SDS011;1882;52.256;8.874;2024-01-16T08:00:40;16.80;;;8.70;;
3733;SDS011;1882;52.256;8.874;2024-01-16T08:03:08;18.23;;;8.43;;
3733;SDS011;1882;52.256;8.874;2024-01-16T08:05:38;19.67;;;8.83;;
3733;SDS011;1882;52.256;8.874;2024-01-16T08:08:08;16.17;;;8.20;;
3733;SDS011;1882;52.256;8.874;2024-01-16T08:10:36;16.37;;;7.50;;
3733;SDS011;1882;52.256;8.874;2024-01-16T08:13:03;16.23;;;7.30;;
3733;SDS011;1882;52.256;8.874;2024-01-16T08:15:30;17.17;;;8.47;;
3733;SDS011;1882;52.256;8.874;2024-01-16T08:17:57;22.80;;;8.77;;
3733;SDS011;1882;52.256;8.874;2024-01-16T08:20:24;14.33;;;8.20;;
3733;SDS011;1882;52.256;8.874;2024-01-16T08:22:51;22.13;;;8.23;;
3733;SDS011;1882;52.256;8.874;2024-01-16T08:25:19;15.00;;;8.10;;
3733;SDS011;1882;52.256;8.874;2024-01-16T08:27:46;12.97;;;7.73;;
3733;SDS011;1882;52.256;8.874;2024-01-16T08:30:13;14.40;;;7.57;;
3733;SDS011;1882;52.256;8.874;2024-01-16T08:32:40;13.03;;;7.20;;
3733;SDS011;1882;52.256;8.874;2024-01-16T08:35:07;12.13;;;7.50;;
3733;SDS011;1882;52.256;8.874;2024-01-16T08:37:35;15.53;;;8.13;;
3733;SDS011;1882;52.256;8.874;2024-01-16T08:40:02;13.60;;;7.40;;
3733;SDS011;1882;52.256;8.874;2024-01-16T08:42:31;13.73;;;7.30;;
3733;SDS011;1882;52.256;8.874;2024-01-16T08:44:58;16.90;;;7.80;;
3733;SDS011;1882;52.256;8.874;2024-01-16T08:47:25;14.30;;;7.47;;
3733;SDS011;1882;52.256;8.874;2024-01-16T08:49:52;14.57;;;8.13;;
3733;SDS011;1882;52.256;8.874;2024-01-16T08:52:19;16.93;;;7.47;;
3733;SDS011;1882;52.256;8.874;2024-01-16T08:54:46;10.83;;;6.80;;
3733;SDS011;1882;52.256;8.874;2024-01-16T08:57:14;12.23;;;7.10;;
3733;SDS011;1882;52.256;8.874;2024-01-16T08:59:43;13.70;;;7.27;;
3733;SDS011;1882;52.256;8.874;2024-01-16T09:02:10;16.93;;;7.87;;
3733;SDS011;1882;52.256;8.874;2024-01-16T09:04:38;18.87;;;8.37;;
3733;SDS011;1882;52.256;8.874;2024-01-16T09:07:05;16.03;;;7.83;;
3733;SDS011;1882;52.256;8.874;2024-01-16T09:09:33;14.10;;;7.73;;
3733;SDS011;1882;52.256;8.874;2024-01-16T09:12:00;14.90;;;7.10;;
3733;SDS011;1882;52.256;8.874;2024-01-16T09:14:27;14.33;;;7.60;;
3733;SDS011;1882;52.256;8.874;2024-01-16T09:16:56;12.90;;;6.90;;
3733;SDS011;1882;52.256;8.874;2024-01-16T09:19:23;17.30;;;7.40;;
3733;SDS011;1882;52.256;8.874;2024-01-16T09:21:52;9.67;;;6.13;;
3733;SDS011;1882;52.256;8.874;2024-01-16T09:24:19;15.40;;;7.90;;
3733;SDS011;1882;52.256;8.874;2024-01-16T09:26:46;12.77;;;7.40;;
3733;SDS011;1882;52.256;8.874;2024-01-16T09:29:13;12.40;;;7.50;;
3733;SDS011;1882;52.256;8.874;2024-01-16T09:31:41;18.97;;;7.13;;
3733;SDS011;1882;52.256;8.874;2024-01-16T09:34:08;18.90;;;7.73;;
3733;SDS011;1882;52.256;8.874;2024-01-16T09:36:35;10.40;;;6.63;;
3733;SDS011;1882;52.256;8.874;2024-01-16T09:39:07;15.63;;;6.87;;
3733;SDS011;1882;52.256;8.874;2024-01-16T09:41:45;11.20;;;6.80;;
3733;SDS011;1882;52.256;8.874;2024-01-16T09:44:13;11.30;;;6.77;;
3733;SDS011;1882;52.256;8.874;2024-01-16T09:46:40;12.50;;;6.23;;
3733;SDS011;1882;52.256;8.874;2024-01-16T09:49:12;9.87;;;6.13;;
3733;SDS011;1882;52.256;8.874;2024-01-16T09:51:42;9.80;;;6.53;;
3733;SDS011;1882;52.256;8.874;2024-01-16T09:54:09;11.47;;;6.70;;
3733;SDS011;1882;52.256;8.874;2024-01-16T09:56:39;7.97;;;6.20;;
3733;SDS011;1882;52.256;8.874;2024-01-16T09:59:09;11.03;;;6.70;;
3733;SDS011;1882;52.256;8.874;2024-01-16T10:01:41;10.83;;;6.13;;
3733;SDS011;1882;52.256;8.874;2024-01-16T10:04:08;13.03;;;6.40;;
3733;SDS011;1882;52.256;8.874;2024-01-16T10:06:35;11.43;;;6.97;;
3733;SDS011;1882;52.256;8.874;2024-01-16T10:09:06;11.97;;;6.40;;
3733;SDS011;1882;52.256;8.874;2024-01-16T10:11:33;11.47;;;6.40;;
3733;SDS011;1882;52.256;8.874;2024-01-16T10:14:00;13.10;;;6.70;;
3733;SDS011;1882;52.256;8.874;2024-01-16T10:19:47;11.87;;;5.77;;
3733;SDS011;1882;52.256;8.874;2024-01-16T10:22:20;19.47;;;6.37;;
3733;SDS011;1882;52.256;8.874;2024-01-16T10:25:10;11.10;;;5.33;;
3733;SDS011;1882;52.256;8.874;2024-01-16T10:27:40;18.10;;;5.43;;
3733;SDS011;1882;52.256;8.874;2024-01-16T10:30:07;11.50;;;5.70;;
3733;SDS011;1882;52.256;8.874;2024-01-16T10:32:41;10.73;;;5.73;;
3733;SDS011;1882;52.256;8.874;2024-01-16T10:35:13;11.53;;;5.30;;
3733;SDS011;1882;52.256;8.874;2024-01-16T10:37:45;14.10;;;6.27;;
3733;SDS011;1882;52.256;8.874;2024-01-16T10:40:17;10.50;;;5.80;;
3733;SDS011;1882;52.256;8.874;2024-01-16T10:45:28;9.70;;;5.80;;
3733;SDS011;1882;52.256;8.874;2024-01-16T10:48:02;10.00;;;6.00;;
3733;SDS011;1882;52.256;8.874;2024-01-16T10:50:35;11.43;;;6.20;;
3733;SDS011;1882;52.256;8.874;2024-01-16T10:53:04;13.47;;;6.30;;
3733;SDS011;1882;52.256;8.874;2024-01-16T10:55:36;11.13;;;6.33;;
3733;SDS011;1882;52.256;8.874;2024-01-16T10:58:15;12.63;;;6.43;;
3733;SDS011;1882;52.256;8.874;2024-01-16T11:00:46;11.33;;;6.30;;
3733;SDS011;1882;52.256;8.874;2024-01-16T11:03:18;15.70;;;6.60;;
3733;SDS011;1882;52.256;8.874;2024-01-16T11:05:50;14.23;;;6.03;;
3733;SDS011;1882;52.256;8.874;2024-01-16T11:08:18;10.03;;;6.50;;
3733;SDS011;1882;52.256;8.874;2024-01-16T11:10:47;13.20;;;6.80;;
3733;SDS011;1882;52.256;8.874;2024-01-16T11:13:15;12.73;;;6.33;;
3733;SDS011;1882;52.256;8.874;2024-01-16T11:15:45;16.73;;;7.47;;
3733;SDS011;1882;52.256;8.874;2024-01-16T11:18:14;12.43;;;6.60;;
3733;SDS011;1882;52.256;8.874;2024-01-16T11:20:44;13.83;;;7.03;;
3733;SDS011;1882;52.256;8.874;2024-01-16T11:23:31;16.67;;;7.47;;
3733;SDS011;1882;52.256;8.874;2024-01-16T11:25:58;13.00;;;7.03;;
3733;SDS011;1882;52.256;8.874;2024-01-16T11:28:29;11.10;;;7.10;;
3733;SDS011;1882;52.256;8.874;2024-01-16T11:30:56;10.63;;;6.97;;
3733;SDS011;1882;52.256;8.874;2024-01-16T11:36:00;14.60;;;7.73;;
3733;SDS011;1882;52.256;8.874;2024-01-16T11:38:28;12.37;;;7.60;;
3733;SDS011;1882;52.256;8.874;2024-01-16T11:40:59;13.47;;;7.00;;
3733;SDS011;1882;52.256;8.874;2024-01-16T11:46:00;16.67;;;7.73;;
3733;SDS011;1882;52.256;8.874;2024-01-16T11:48:27;12.70;;;7.20;;
3733;SDS011;1882;52.256;8.874;2024-01-16T11:50:54;15.50;;;8.50;;
3733;SDS011;1882;52.256;8.874;2024-01-16T11:53:35;16.77;;;7.47;;
3733;SDS011;1882;52.256;8.874;2024-01-16T11:56:13;15.83;;;8.10;;
3733;SDS011;1882;52.256;8.874;2024-01-16T12:01:41;15.97;;;7.73;;
3733;SDS011;1882;52.256;8.874;2024-01-16T12:04:12;14.90;;;8.77;;
3733;SDS011;1882;52.256;8.874;2024-01-16T12:06:41;16.17;;;8.07;;
3733;SDS011;1882;52.256;8.874;2024-01-16T12:09:14;15.90;;;9.80;;
3733;SDS011;1882;52.256;8.874;2024-01-16T12:11:43;16.90;;;9.90;;
3733;SDS011;1882;52.256;8.874;2024-01-16T12:14:22;18.27;;;9.70;;
3733;SDS011;1882;52.256;8.874;2024-01-16T12:16:49;15.97;;;10.30;;
3733;SDS011;1882;52.256;8.874;2024-01-16T12:19:16;20.43;;;10.80;;
3733;SDS011;1882;52.256;8.874;2024-01-16T12:21:44;17.70;;;10.27;;
3733;SDS011;1882;52.256;8.874;2024-01-16T12:24:11;17.67;;;10.33;;
3733;SDS011;1882;52.256;8.874;2024-01-16T12:26:43;18.40;;;11.23;;
3733;SDS011;1882;52.256;8.874;2024-01-16T12:29:10;18.17;;;11.10;;
3733;SDS011;1882;52.256;8.874;2024-01-16T12:31:38;21.43;;;12.83;;
3733;SDS011;1882;52.256;8.874;2024-01-16T12:34:08;19.57;;;12.10;;
3733;SDS011;1882;52.256;8.874;2024-01-16T12:36:36;19.10;;;12.70;;
3733;SDS011;1882;52.256;8.874;2024-01-16T12:39:04;19.30;;;11.97;;
3733;SDS011;1882;52.256;8.874;2024-01-16T12:41:36;21.73;;;13.17;;
3733;SDS011;1882;52.256;8.874;2024-01-16T12:44:09;30.37;;;12.80;;
3733;SDS011;1882;52.256;8.874;2024-01-16T12:46:43;22.07;;;11.50;;
3733;SDS011;1882;52.256;8.874;2024-01-16T12:49:19;17.00;;;11.00;;
3733;SDS011;1882;52.256;8.874;2024-01-16T12:51:47;32.87;;;17.80;;
3733;SDS011;1882;52.256;8.874;2024-01-16T12:54:15;24.37;;;14.17;;
3733;SDS011;1882;52.256;8.874;2024-01-16T12:56:44;24.77;;;13.13;;
3733;SDS011;1882;52.256;8.874;2024-01-16T12:59:14;19.37;;;11.67;;
3733;SDS011;1882;52.256;8.874;2024-01-16T13:01:42;19.70;;;12.17;;
3733;SDS011;1882;52.256;8.874;2024-01-16T13:04:12;18.23;;;11.23;;
3733;SDS011;1882;52.256;8.874;2024-01-16T13:06:45;18.00;;;10.43;;
3733;SDS011;1882;52.256;8.874;2024-01-16T13:09:14;15.27;;;9.80;;
3733;SDS011;1882;52.256;8.874;2024-01-16T13:14:13;21.37;;;9.67;;
3733;SDS011;1882;52.256;8.874;2024-01-16T13:16:40;16.47;;;10.30;;
3733;SDS011;1882;52.256;8.874;2024-01-16T13:19:07;13.93;;;9.43;;
3733;SDS011;1882;52.256;8.874;2024-01-16T13:21:37;17.50;;;10.07;;
3733;SDS011;1882;52.256;8.874;2024-01-16T13:24:04;18.07;;;10.43;;
3733;SDS011;1882;52.256;8.874;2024-01-16T13:26:31;16.70;;;9.83;;
3733;SDS011;1882;52.256;8.874;2024-01-16T13:28:59;14.00;;;8.77;;
3733;SDS011;1882;52.256;8.874;2024-01-16T13:31:26;23.33;;;11.13;;
3733;SDS011;1882;52.256;8.874;2024-01-16T13:33:53;28.90;;;12.70;;
3733;SDS011;1882;52.256;8.874;2024-01-16T13:36:23;15.57;;;10.40;;
3733;SDS011;1882;52.256;8.874;2024-01-16T13:39:10;16.13;;;9.10;;
3733;SDS011;1882;52.256;8.874;2024-01-16T13:41:39;18.80;;;9.07;;
3733;SDS011;1882;52.256;8.874;2024-01-16T13:44:07;13.60;;;9.03;;
3733;SDS011;1882;52.256;8.874;2024-01-16T13:46:34;15.20;;;10.13;;
3733;SDS011;1882;52.256;8.874;2024-01-16T13:49:22;13.30;;;9.70;;
3733;SDS011;1882;52.256;8.874;2024-01-16T13:51:49;17.00;;;9.60;;
3733;SDS011;1882;52.256;8.874;2024-01-16T13:54:16;15.97;;;10.40;;
3733;SDS011;1882;52.256;8.874;2024-01-16T13:56:45;16.00;;;8.83;;
3733;SDS011;1882;52.256;8.874;2024-01-16T13:59:31;19.30;;;11.23;;
3733;SDS011;1882;52.256;8.874;2024-01-16T14:01:58;24.40;;;9.57;;
3733;SDS011;1882;52.256;8.874;2024-01-16T14:04:25;13.70;;;9.13;;
3733;SDS011;1882;52.256;8.874;2024-01-16T14:06:52;21.13;;;9.30;;
3733;SDS011;1882;52.256;8.874;2024-01-16T14:09:37;16.57;;;8.50;;
3733;SDS011;1882;52.256;8.874;2024-01-16T14:12:04;15.00;;;8.73;;
3733;SDS011;1882;52.256;8.874;2024-01-16T14:14:35;19.10;;;8.77;;
3733;SDS011;1882;52.256;8.874;2024-01-16T14:17:02;20.50;;;10.47;;
3733;SDS011;1882;52.256;8.874;2024-01-16T14:19:29;18.50;;;11.27;;
3733;SDS011;1882;52.256;8.874;2024-01-16T14:21:57;16.00;;;9.20;;
3733;SDS011;1882;52.256;8.874;2024-01-16T14:24:25;25.53;;;10.43;;
3733;SDS011;1882;52.256;8.874;2024-01-16T14:26:52;20.13;;;10.63;;
3733;SDS011;1882;52.256;8.874;2024-01-16T14:29:19;16.17;;;9.90;;
3733;SDS011;1882;52.256;8.874;2024-01-16T14:31:46;13.17;;;9.00;;
3733;SDS011;1882;52.256;8.874;2024-01-16T14:34:16;15.03;;;8.73;;
3733;SDS011;1882;52.256;8.874;2024-01-16T14:36:45;22.13;;;9.93;;
3733;SDS011;1882;52.256;8.874;2024-01-16T14:39:13;17.73;;;9.37;;
3733;SDS011;1882;52.256;8.874;2024-01-16T14:41:44;13.27;;;9.10;;
3733;SDS011;1882;52.256;8.874;2024-01-16T14:44:12;18.90;;;11.37;;
3733;SDS011;1882;52.256;8.874;2024-01-16T14:46:43;23.00;;;11.67;;
3733;SDS011;1882;52.256;8.874;2024-01-16T14:49:15;16.13;;;9.93;;
3733;SDS011;1882;52.256;8.874;2024-01-16T14:51:42;15.10;;;9.13;;
3733;SDS011;1882;52.256;8.874;2024-01-16T14:54:09;16.00;;;9.60;;
3733;SDS011;1882;52.256;8.874;2024-01-16T14:56:36;13.40;;;9.13;;
3733;SDS011;1882;52.256;8.874;2024-01-16T14:59:03;17.53;;;8.23;;
3733;SDS011;1882;52.256;8.874;2024-01-16T15:01:30;17.87;;;8.00;;
3733;SDS011;1882;52.256;8.874;2024-01-16T15:03:57;16.37;;;8.27;;
3733;SDS011;1882;52.256;8.874;2024-01-16T15:06:26;13.83;;;7.50;;
3733;SDS011;1882;52.256;8.874;2024-01-16T15:08:54;13.40;;;7.80;;
3733;SDS011;1882;52.256;8.874;2024-01-16T15:11:21;13.57;;;6.97;;
3733;SDS011;1882;52.256;8.874;2024-01-16T15:13:49;13.80;;;6.80;;
3733;SDS011;1882;52.256;8.874;2024-01-16T15:16:16;14.83;;;7.23;;
3733;SDS011;1882;52.256;8.874;2024-01-16T15:18:45;14.23;;;8.07;;
3733;SDS011;1882;52.256;8.874;2024-01-16T15:21:12;13.47;;;8.37;;
3733;SDS011;1882;52.256;8.874;2024-01-16T15:23:39;17.23;;;7.30;;
3733;SDS011;1882;52.256;8.874;2024-01-16T15:26:06;16.97;;;7.20;;